Time;durP1;ratioP1;P1;durP2;ratioP2;P2;SDS_P1;SDS_P2;PMS_P1;PMS_P2;Temp;Humidity;BMP_temperature;BMP_pressure;BME280_temperature;BME280_humidity;BME280_pressure;Samples;Min_cycle;Max_cycle;Signal;HPM_P1;HPM_P2
2023/06/02 00:01:49;;;;;;;;;;;;;;;20.63;62.13;100492.63;5013427;28;19917;-78
2023/06/02 00:04:41;;;;;;;;;;;;;;;20.39;63.39;100486.59;5011566;28;19925;-78
2023/06/02 00:07:32;;;;;;;;;;;;;;;20.20;63.92;100486.06;5016883;28;19918;-78
2023/06/02 00:10:24;;;;;;;;;;;;;;;19.87;64.72;100487.03;5007700;28;19917;-77
2023/06/02 00:13:16;;;;;;;;;;;;;;;19.92;64.79;100484.72;5013618;28;19917;-79
2023/06/02 00:16:06;;;;;;;;;;;;;;;19.97;64.07;100489.06;5008756;28;19917;-79
2023/06/02 00:18:57;;;;;;;;;;;;;;;20.16;62.66;100480.53;5009501;28;19921;-78
2023/06/02 00:21:49;;;;;;;;;;;;;;;20.25;62.64;100486.50;5006784;28;20292;-78
2023/06/02 00:24:42;;;;;;;;;;;;;;;20.45;61.68;100489.78;5013828;28;19922;-78
2023/06/02 00:27:34;;;;;;;;;;;;;;;20.56;61.23;100495.38;5006836;28;19918;-78
2023/06/02 00:30:26;;;;;;;;;;;;;;;20.53;61.59;100488.63;5011609;28;20388;-78
2023/06/02 00:33:15;;;;;;;;;;;;;;;20.62;61.29;100496.59;5005841;28;20393;-79
2023/06/02 00:36:07;;;;;;;;;;;;;;;20.64;60.70;100499.75;5028603;28;19918;-78
2023/06/02 00:38:57;;;;;;;;;;;;;;;20.50;61.43;100494.94;5016983;28;19921;-78
2023/06/02 00:41:49;;;;;;;;;;;;;;;20.44;61.43;100489.00;5011521;28;19917;-78
2023/06/02 00:44:41;;;;;;;;;;;;;;;20.45;61.32;100490.59;5013810;28;20300;-78
2023/06/02 00:47:33;;;;;;;;;;;;;;;20.06;62.85;100482.03;5016620;28;19917;-78
2023/06/02 00:50:25;;;;;;;;;;;;;;;20.07;62.85;100483.63;5012587;28;19917;-79
2023/06/02 00:53:17;;;;;;;;;;;;;;;20.03;62.16;100479.25;5039772;28;19925;-79
2023/06/02 00:56:09;;;;;;;;;;;;;;;19.85;63.02;100475.59;5033308;28;19917;-78
2023/06/02 00:59:01;;;;;;;;;;;;;;;19.96;63.11;100463.44;5034523;28;19925;-78
2023/06/02 01:01:53;;;;;;;;;;;;;;;20.14;61.93;100460.78;5038499;28;19917;-78
2023/06/02 01:04:47;;;;;;;;;;;;;;;20.26;61.17;100471.53;5028192;28;20381;-78
2023/06/02 01:07:39;;;;;;;;;;;;;;;20.32;61.05;100467.22;5005499;28;19917;-78
2023/06/02 01:10:31;;;;;;;;;;;;;;;20.25;61.32;100458.88;5014020;28;19921;-78
2023/06/02 01:13:23;;;;;;;;;;;;;;;20.10;61.83;100456.44;5015279;28;20289;-78
2023/06/02 01:16:16;;;;;;;;;;;;;;;19.98;62.00;100454.78;5028030;28;19918;-77
2023/06/02 01:19:09;;;;;;;;;;;;;;;19.97;62.09;100461.47;5014515;28;19921;-77
2023/06/02 01:22:01;;;;;;;;;;;;;;;19.93;61.81;100460.66;5008004;28;19925;-77
2023/06/02 01:24:53;;;;;;;;;;;;;;;19.82;62.64;100460.59;5014933;28;19917;-78
2023/06/02 01:27:45;;;;;;;;;;;;;;;19.50;64.26;100465.09;5016875;28;19917;-76
2023/06/02 01:30:37;;;;;;;;;;;;;;;19.44;64.27;100458.31;5006804;28;19921;-77
2023/06/02 01:33:33;;;;;;;;;;;;;;;19.37;64.90;100461.78;5018911;28;20296;-77
2023/06/02 01:36:23;;;;;;;;;;;;;;;19.00;66.70;100461.00;5014994;28;19921;-77
2023/06/02 01:39:16;;;;;;;;;;;;;;;19.35;65.08;100458.59;5014788;28;20381;-77
2023/06/02 01:42:08;;;;;;;;;;;;;;;19.63;64.08;100456.13;5023900;28;19917;-77
2023/06/02 01:45:01;;;;;;;;;;;;;;;19.60;64.15;100451.38;5035690;28;19917;-77
2023/06/02 01:47:53;;;;;;;;;;;;;;;19.91;63.17;100460.28;5035706;28;19917;-77
2023/06/02 01:50:45;;;;;;;;;;;;;;;20.00;62.31;100453.22;5037791;28;19917;-77
2023/06/02 01:53:32;;;;;;;;;;;;;;;20.01;62.47;100454.03;5027053;28;20380;-77
2023/06/02 01:56:24;;;;;;;;;;;;;;;18.77;67.71;100459.22;5016262;28;19917;-77
2023/06/02 01:59:16;;;;;;;;;;;;;;;18.76;67.44;100456.84;5016089;28;19921;-77
2023/06/02 02:02:08;;;;;;;;;;;;;;;19.36;65.89;100451.91;5015542;28;20380;-77
2023/06/02 02:04:57;;;;;;;;;;;;;;;19.53;65.36;100447.75;5003389;28;20373;-77
2023/06/02 02:07:47;;;;;;;;;;;;;;;19.72;64.29;100449.47;5004910;28;20381;-77
2023/06/02 02:10:36;;;;;;;;;;;;;;;19.92;64.01;100456.31;5013879;28;19926;-77
2023/06/02 02:13:25;;;;;;;;;;;;;;;19.64;63.73;100454.97;5012178;28;19917;-77
2023/06/02 02:16:18;;;;;;;;;;;;;;;19.47;64.81;100454.78;5015950;28;19918;-77
2023/06/02 02:19:10;;;;;;;;;;;;;;;19.09;67.26;100456.00;5016348;28;20292;-78
2023/06/02 02:22:02;;;;;;;;;;;;;;;19.11;67.29;100459.97;5014906;28;19921;-77
2023/06/02 02:24:54;;;;;;;;;;;;;;;18.86;69.14;100447.09;5016047;28;19914;-78
2023/06/02 02:27:46;;;;;;;;;;;;;;;19.13;68.34;100452.13;5014912;28;19917;-77
2023/06/02 02:30:38;;;;;;;;;;;;;;;19.02;69.31;100453.97;5019004;28;19917;-76
2023/06/02 02:33:30;;;;;;;;;;;;;;;18.93;69.42;100453.50;5016448;28;19918;-77
2023/06/02 02:36:22;;;;;;;;;;;;;;;19.02;69.73;100453.19;5071836;22;19925;-81
2023/06/02 02:39:12;;;;;;;;;;;;;;;18.87;70.28;100459.72;5019467;28;20332;-81
2023/06/02 02:42:01;;;;;;;;;;;;;;;18.80;70.71;100461.22;5020471;28;19918;-81
2023/06/02 02:44:53;;;;;;;;;;;;;;;18.79;71.28;100458.84;5022274;28;19917;-81
2023/06/02 02:47:45;;;;;;;;;;;;;;;18.89;71.21;100458.19;5019454;28;19917;-81
2023/06/02 02:50:37;;;;;;;;;;;;;;;18.80;71.69;100452.94;5019151;28;19917;-81
2023/06/02 02:53:31;;;;;;;;;;;;;;;18.80;71.11;100460.41;5021870;28;19918;-81
2023/06/02 02:56:23;;;;;;;;;;;;;;;18.81;70.98;100453.75;5024685;28;19917;-81
2023/06/02 02:59:16;;;;;;;;;;;;;;;18.98;70.24;100452.34;5015150;28;19921;-81
2023/06/02 03:02:08;;;;;;;;;;;;;;;18.93;70.63;100456.25;5013914;28;19921;-81
2023/06/02 03:05:00;;;;;;;;;;;;;;;18.80;71.00;100455.69;5036303;28;19917;-81
2023/06/02 03:07:52;;;;;;;;;;;;;;;18.95;70.96;100447.56;5028222;28;20305;-81
2023/06/02 03:10:44;;;;;;;;;;;;;;;18.82;70.50;100454.53;5021245;28;20305;-80
2023/06/02 03:13:36;;;;;;;;;;;;;;;18.91;70.18;100460.53;5020371;28;19917;-80
2023/06/02 03:16:28;;;;;;;;;;;;;;;19.28;68.56;100453.03;5019153;28;19917;-81
2023/06/02 03:19:20;;;;;;;;;;;;;;;19.39;68.01;100442.91;5021834;28;19921;-81
2023/06/02 03:22:10;;;;;;;;;;;;;;;19.48;68.03;100439.84;5020049;28;19917;-81
2023/06/02 03:25:02;;;;;;;;;;;;;;;19.32;68.12;100431.78;5015710;28;20309;-81
2023/06/02 03:27:54;;;;;;;;;;;;;;;19.28;67.97;100435.69;5020762;28;19917;-80
2023/06/02 03:30:46;;;;;;;;;;;;;;;19.44;67.49;100452.78;5039638;28;19917;-82
2023/06/02 03:33:39;;;;;;;;;;;;;;;19.45;67.20;100451.66;5051899;28;19917;-81
2023/06/02 03:36:31;;;;;;;;;;;;;;;19.35;67.67;100439.28;5037816;28;20296;-81
2023/06/02 03:39:23;;;;;;;;;;;;;;;19.32;67.48;100442.81;5030854;28;19922;-81
2023/06/02 03:42:20;;;;;;;;;;;;;;;19.37;67.21;100442.47;5018275;28;19926;-80
2023/06/02 03:45:13;;;;;;;;;;;;;;;18.82;68.73;100443.50;5018924;28;19918;-80
2023/06/02 03:48:05;;;;;;;;;;;;;;;18.64;68.94;100449.59;5031435;28;20257;-80
2023/06/02 03:50:57;;;;;;;;;;;;;;;18.45;70.03;100452.50;5018226;28;20308;-81
2023/06/02 03:53:49;;;;;;;;;;;;;;;18.45;70.05;100457.22;5032971;28;19918;-81
2023/06/02 03:56:41;;;;;;;;;;;;;;;18.47;70.02;100455.69;5017259;28;19917;-80
2023/06/02 03:59:33;;;;;;;;;;;;;;;18.80;68.54;100455.69;5018572;28;19922;-80
2023/06/02 04:02:25;;;;;;;;;;;;;;;18.95;68.02;100453.88;5031566;28;19918;-80
2023/06/02 04:05:17;;;;;;;;;;;;;;;18.93;67.84;100455.44;5044967;28;19917;-80
2023/06/02 04:08:10;;;;;;;;;;;;;;;19.14;66.92;100452.91;5039333;28;20300;-80
2023/06/02 04:11:01;;;;;;;;;;;;;;;19.03;67.41;100452.00;5037275;28;19917;-80
2023/06/02 04:13:53;;;;;;;;;;;;;;;19.32;66.52;100453.84;5033472;28;19918;-80
2023/06/02 04:16:46;;;;;;;;;;;;;;;19.42;65.73;100452.38;5017750;28;19918;-80
2023/06/02 04:19:38;;;;;;;;;;;;;;;19.53;65.37;100456.84;5021651;28;19921;-80
2023/06/02 04:22:30;;;;;;;;;;;;;;;19.61;65.39;100465.94;5037329;28;19918;-80
2023/06/02 04:25:22;;;;;;;;;;;;;;;19.69;65.12;100472.31;5036658;28;19917;-80
2023/06/02 04:28:11;;;;;;;;;;;;;;;19.76;64.34;100472.38;5025047;28;19921;-80
2023/06/02 04:31:04;;;;;;;;;;;;;;;19.81;64.19;100463.75;5018055;28;19918;-80
2023/06/02 04:34:00;;;;;;;;;;;;;;;19.74;64.43;100463.69;5014709;28;19917;-81
2023/06/02 04:36:52;;;;;;;;;;;;;;;19.67;65.17;100463.63;5018213;28;19918;-81
2023/06/02 04:39:41;;;;;;;;;;;;;;;19.62;66.29;100462.00;5017786;28;19921;-81
2023/06/02 04:42:32;;;;;;;;;;;;;;;19.66;66.22;100464.81;5015864;28;20401;-81
2023/06/02 04:45:22;;;;;;;;;;;;;;;20.21;64.82;100466.38;5030897;28;19918;-81
2023/06/02 04:48:15;;;;;;;;;;;;;;;20.69;62.99;100468.97;5031762;28;19917;-80
2023/06/02 04:51:07;;;;;;;;;;;;;;;20.96;61.81;100478.53;5031188;28;20300;-81
2023/06/02 04:54:00;;;;;;;;;;;;;;;21.22;60.96;100477.44;5000474;28;19918;-80
2023/06/02 04:56:51;;;;;;;;;;;;;;;21.45;59.89;100472.31;4998350;28;19922;-80
2023/06/02 04:59:43;;;;;;;;;;;;;;;21.56;59.31;100473.09;5014471;28;19922;-81
2023/06/02 05:02:35;;;;;;;;;;;;;;;21.61;59.46;100480.22;4998561;28;20401;-80
2023/06/02 05:05:27;;;;;;;;;;;;;;;21.73;59.25;100468.75;5018043;28;19921;-80
2023/06/02 05:08:19;;;;;;;;;;;;;;;21.74;59.00;100467.56;5016953;28;20396;-80
2023/06/02 05:11:11;;;;;;;;;;;;;;;21.96;58.28;100469.16;5013060;28;19918;-80
2023/06/02 05:14:02;;;;;;;;;;;;;;;22.08;58.18;100471.50;5020254;28;19917;-79
2023/06/02 05:16:54;;;;;;;;;;;;;;;22.27;57.57;100469.47;5015659;28;19926;-80
2023/06/02 05:19:46;;;;;;;;;;;;;;;22.29;57.65;100467.09;5012119;28;20384;-80
2023/06/02 05:22:38;;;;;;;;;;;;;;;22.40;56.97;100470.63;5018666;28;19921;-79
2023/06/02 05:25:30;;;;;;;;;;;;;;;22.59;56.51;100472.94;5014876;28;19917;-78
2023/06/02 05:28:20;;;;;;;;;;;;;;;22.65;56.07;100471.31;5019406;28;19925;-80
2023/06/02 05:31:12;;;;;;;;;;;;;;;22.67;56.31;100466.16;5016619;28;19918;-78
2023/06/02 05:34:04;;;;;;;;;;;;;;;22.64;56.31;100464.19;5028178;28;19918;-78
2023/06/02 05:36:56;;;;;;;;;;;;;;;22.76;55.68;100469.28;5020894;28;19921;-78
2023/06/02 05:39:48;;;;;;;;;;;;;;;22.77;55.51;100465.34;5017468;28;19933;-80
2023/06/02 05:42:40;;;;;;;;;;;;;;;22.76;55.53;100466.53;5016267;28;19921;-79
2023/06/02 05:45:32;;;;;;;;;;;;;;;22.90;55.14;100465.69;5033710;28;19918;-79
2023/06/02 05:48:24;;;;;;;;;;;;;;;22.80;55.56;100460.97;5032857;28;19917;-80
2023/06/02 05:51:17;;;;;;;;;;;;;;;22.88;55.59;100465.28;5016977;28;19918;-80
2023/06/02 05:54:09;;;;;;;;;;;;;;;23.01;55.06;100464.41;5035191;28;19918;-79
2023/06/02 05:57:01;;;;;;;;;;;;;;;23.08;54.75;100465.56;5018491;28;19918;-80
2023/06/02 05:59:53;;;;;;;;;;;;;;;23.06;55.47;100465.97;5026063;28;19922;-80
2023/06/02 06:02:45;;;;;;;;;;;;;;;22.70;56.87;100473.69;5024551;28;19926;-78
2023/06/02 06:05:41;;;;;;;;;;;;;;;23.10;55.80;100472.28;5014123;28;20393;-79
2023/06/02 06:08:33;;;;;;;;;;;;;;;22.67;57.13;100474.47;5005323;28;19918;-79
2023/06/02 06:11:25;;;;;;;;;;;;;;;22.80;56.79;100472.06;5011028;28;19917;-81
2023/06/02 06:14:18;;;;;;;;;;;;;;;22.91;55.98;100479.13;5030018;28;19918;-82
2023/06/02 06:17:10;;;;;;;;;;;;;;;22.96;55.18;100473.16;5031477;28;19918;-80
2023/06/02 06:20:02;;;;;;;;;;;;;;;22.96;55.25;100470.38;5014365;28;19925;-81
2023/06/02 06:22:54;;;;;;;;;;;;;;;22.99;55.42;100469.59;5023361;28;19917;-81
2023/06/02 06:25:47;;;;;;;;;;;;;;;23.32;54.46;100476.47;5017116;28;19918;-79
2023/06/02 06:28:39;;;;;;;;;;;;;;;23.56;54.33;100477.53;5025915;28;19921;-79
2023/06/02 06:31:31;;;;;;;;;;;;;;;23.78;53.49;100480.91;5028177;28;20676;-78
2023/06/02 06:34:23;;;;;;;;;;;;;;;24.00;52.52;100464.81;5011632;28;19917;-78
2023/06/02 06:37:15;;;;;;;;;;;;;;;24.09;52.40;100479.81;5017440;28;20532;-79
2023/06/02 06:40:07;;;;;;;;;;;;;;;24.28;52.03;100482.00;5027633;28;19921;-79
2023/06/02 06:42:57;;;;;;;;;;;;;;;24.19;51.74;100480.94;5021669;28;19917;-79
2023/06/02 06:45:59;;;;;;;;;;;;;;;23.56;53.76;100490.63;5012129;28;19922;-78
2023/06/02 06:48:51;;;;;;;;;;;;;;;23.12;54.63;100491.28;5030748;28;19921;-78
2023/06/02 06:51:43;;;;;;;;;;;;;;;23.36;53.57;100484.81;5022062;28;19917;-79
2023/06/02 06:54:33;;;;;;;;;;;;;;;23.69;53.33;100489.72;5017069;28;19918;-78
2023/06/02 06:57:24;;;;;;;;;;;;;;;23.99;53.28;100491.03;5014793;28;19921;-79
2023/06/02 07:00:16;;;;;;;;;;;;;;;23.88;54.09;100488.34;5020223;28;19921;-78
2023/06/02 07:03:08;;;;;;;;;;;;;;;23.85;54.20;100484.41;5019635;28;19921;-78
2023/06/02 07:05:58;;;;;;;;;;;;;;;23.87;55.41;100489.56;5017706;28;19933;-78
2023/06/02 07:08:50;;;;;;;;;;;;;;;23.79;54.99;100488.03;5020722;28;20376;-78
2023/06/02 07:11:41;;;;;;;;;;;;;;;23.97;53.67;100485.09;5018372;28;19922;-78
2023/06/02 07:14:33;;;;;;;;;;;;;;;24.13;53.06;100486.09;5021645;28;19917;-77
2023/06/02 07:17:25;;;;;;;;;;;;;;;24.36;51.49;100493.06;5019853;28;19918;-78
2023/06/02 07:20:17;;;;;;;;;;;;;;;24.51;52.07;100494.47;5016988;28;19921;-78
2023/06/02 07:23:09;;;;;;;;;;;;;;;24.78;51.12;100492.56;5021958;28;19921;-78
2023/06/02 07:26:01;;;;;;;;;;;;;;;24.99;50.42;100491.50;5018491;28;19917;-78
2023/06/02 07:28:53;;;;;;;;;;;;;;;25.09;46.87;100494.13;5015524;28;20284;-77
2023/06/02 07:31:43;;;;;;;;;;;;;;;25.19;47.23;100499.97;5016132;28;19918;-78
2023/06/02 07:34:35;;;;;;;;;;;;;;;25.30;49.24;100500.59;5014886;28;19917;-77
2023/06/02 07:37:27;;;;;;;;;;;;;;;25.28;47.19;100492.66;5019271;28;19918;-77
2023/06/02 07:40:19;;;;;;;;;;;;;;;25.61;46.96;100490.97;5014431;28;19930;-77
2023/06/02 07:43:11;;;;;;;;;;;;;;;25.34;45.18;100484.63;5013958;28;19922;-78
2023/06/02 07:46:03;;;;;;;;;;;;;;;25.47;46.30;100482.81;5016934;28;19917;-77
2023/06/02 07:48:52;;;;;;;;;;;;;;;25.90;45.28;100491.28;5015365;28;19917;-78
2023/06/02 07:51:44;;;;;;;;;;;;;;;26.10;45.96;100480.19;5020296;28;19917;-77
2023/06/02 07:54:36;;;;;;;;;;;;;;;26.28;45.54;100486.22;5017197;28;19926;-78
2023/06/02 07:57:28;;;;;;;;;;;;;;;26.35;44.39;100475.72;5013345;28;19922;-77
2023/06/02 08:00:21;;;;;;;;;;;;;;;26.27;42.73;100484.66;5018394;28;20376;-77
2023/06/02 08:03:11;;;;;;;;;;;;;;;26.47;44.44;100487.44;5012383;28;20218;-78
2023/06/02 08:06:03;;;;;;;;;;;;;;;26.53;40.33;100485.72;5011227;28;19917;-77
2023/06/02 08:08:52;;;;;;;;;;;;;;;26.87;40.19;100489.00;5017595;28;19917;-77
2023/06/02 08:11:44;;;;;;;;;;;;;;;27.35;41.42;100484.75;5015944;28;20393;-77
2023/06/02 08:14:34;;;;;;;;;;;;;;;27.04;39.02;100476.66;5008517;28;19925;-77
2023/06/02 08:17:29;;;;;;;;;;;;;;;27.03;40.22;100486.25;5016119;28;19918;-77
2023/06/02 08:20:20;;;;;;;;;;;;;;;27.67;38.75;100479.19;5017210;28;19940;-77
2023/06/02 08:23:12;;;;;;;;;;;;;;;27.33;39.74;100481.63;5018721;28;19918;-78
2023/06/02 08:26:04;;;;;;;;;;;;;;;27.19;39.70;100483.50;5014483;28;19942;-78
2023/06/02 08:28:57;;;;;;;;;;;;;;;28.57;38.56;100473.56;5005046;28;19917;-76
2023/06/02 08:31:46;;;;;;;;;;;;;;;27.73;38.75;100483.03;5015471;28;19921;-76
2023/06/02 08:34:38;;;;;;;;;;;;;;;28.17;37.85;100469.50;5015486;28;20344;-77
2023/06/02 08:37:30;;;;;;;;;;;;;;;29.20;35.27;100465.28;5012113;28;19917;-76
2023/06/02 08:40:25;;;;;;;;;;;;;;;31.38;32.86;100471.84;5024450;28;19921;-77
2023/06/02 08:43:16;;;;;;;;;;;;;;;32.40;31.61;100467.91;5014844;28;19918;-76
2023/06/02 08:46:08;;;;;;;;;;;;;;;31.33;32.41;100464.00;5015537;28;19917;-76
2023/06/02 08:49:00;;;;;;;;;;;;;;;30.57;34.21;100458.16;5016092;28;20381;-75
2023/06/02 08:51:53;;;;;;;;;;;;;;;35.26;27.90;100460.91;5013199;28;19918;-75
2023/06/02 08:54:46;;;;;;;;;;;;;;;38.32;23.52;100465.66;5019633;28;19926;-75
2023/06/02 08:57:38;;;;;;;;;;;;;;;38.25;22.36;100469.03;5013295;28;19917;-75
2023/06/02 09:00:30;;;;;;;;;;;;;;;39.63;21.49;100470.28;5010613;28;19921;-76
2023/06/02 09:03:22;;;;;;;;;;;;;;;38.79;22.44;100475.28;5013314;28;19918;-76
2023/06/02 09:06:20;;;;;;;;;;;;;;;40.85;20.10;100480.22;5010982;28;19917;-77
2023/06/02 09:09:07;;;;;;;;;;;;;;;41.02;19.84;100483.72;5014297;28;19918;-77
2023/06/02 09:12:02;;;;;;;;;;;;;;;36.75;23.05;100472.50;5016045;28;19925;-78
2023/06/02 09:15:13;;;;;;;;;;;;;;;36.20;25.53;100469.09;5013240;28;19917;-77
2023/06/02 09:18:14;;;;;;;;;;;;;;;41.94;19.03;100481.72;5015608;28;19917;-77
2023/06/02 09:21:06;;;;;;;;;;;;;;;37.69;22.35;100471.66;5012510;28;19921;-78
2023/06/02 09:23:58;;;;;;;;;;;;;;;34.23;27.48;100465.81;5007856;28;19917;-76
2023/06/02 09:26:54;;;;;;;;;;;;;;;39.63;21.52;100479.59;5007535;28;19917;-77
2023/06/02 09:29:46;;;;;;;;;;;;;;;42.66;17.90;100482.75;5011134;28;19921;-78
2023/06/02 09:32:37;;;;;;;;;;;;;;;42.98;17.88;100480.66;5016752;28;20312;-77
2023/06/02 09:35:40;;;;;;;;;;;;;;;40.49;19.75;100483.06;5014372;28;19922;-77
2023/06/02 09:38:43;;;;;;;;;;;;;;;43.53;17.14;100488.81;5016275;28;19918;-78
2023/06/02 09:41:35;;;;;;;;;;;;;;;43.95;16.03;100486.91;5013807;28;19922;-79
2023/06/02 09:44:27;;;;;;;;;;;;;;;43.19;17.08;100485.78;5015734;28;19933;-79
2023/06/02 09:47:25;;;;;;;;;;;;;;;44.84;15.78;100484.84;5016416;28;20401;-78
2023/06/02 09:50:37;;;;;;;;;;;;;;;44.08;16.42;100478.28;5018590;28;19917;-78
2023/06/02 09:53:29;;;;;;;;;;;;;;;45.95;14.57;100493.28;5021392;28;19922;-78
2023/06/02 09:56:24;;;;;;;;;;;;;;;43.97;15.97;100485.03;5010925;28;19918;-81
2023/06/02 09:59:16;;;;;;;;;;;;;;;39.66;20.26;100481.41;5016801;28;20381;-83
2023/06/02 10:02:08;;;;;;;;;;;;;;;39.69;20.03;100474.66;5015326;28;19921;-81
2023/06/02 10:05:00;;;;;;;;;;;;;;;39.15;20.55;100467.81;5017875;28;19918;-83
2023/06/02 10:07:50;;;;;;;;;;;;;;;42.82;18.43;100470.28;5022257;28;19917;-78
2023/06/02 10:11:02;;;;;;;;;;;;;;;42.26;17.45;100471.09;5020111;28;19921;-78
2023/06/02 10:14:05;;;;;;;9.90;3.93;;;;;;;42.03;18.52;100466.25;5018261;28;20395;-77
2023/06/02 10:17:17;;;;;;;8.77;3.47;;;;;;;44.08;16.72;100469.69;5011762;28;20280;-76
2023/06/02 10:20:21;;;;;;;48.50;5.18;;;;;;;47.02;14.25;100469.19;5015207;28;20536;-76
2023/06/02 10:23:45;;;;;;;6.07;3.00;;;;;;;43.02;17.56;100458.22;4999858;28;20529;-77
2023/06/02 10:26:50;;;;;;;7.03;3.38;;;;;;;43.90;16.09;100463.53;5013196;28;20045;-77
2023/06/02 10:29:45;;;;;;;9.55;3.70;;;;;;;46.34;14.65;100464.09;5011557;28;20037;-74
2023/06/02 10:32:47;;;;;;;7.18;3.38;;;;;;;46.32;14.58;100472.53;5016294;28;20496;-74
2023/06/02 10:36:01;;;;;;;20.75;4.97;;;;;;;39.16;19.54;100446.59;5016783;28;20044;-74
2023/06/02 10:38:55;;;;;;;9.63;3.35;;;;;;;41.68;17.96;100455.78;5014513;28;20516;-75
2023/06/02 10:42:13;;;;;;;9.00;3.40;;;;;;;44.00;16.17;100460.19;5016740;28;20057;-75
2023/06/02 10:45:26;;;;;;;10.80;4.97;;;;;;;44.84;14.74;100467.63;5009710;28;20038;-75
2023/06/02 10:48:46;;;;;;;7.93;3.83;;;;;;;45.63;14.53;100456.31;5003523;28;20705;-76
2023/06/02 10:52:08;;;;;;;6.45;3.83;;;;;;;46.39;14.52;100457.38;5006753;28;20053;-76
2023/06/02 10:55:16;;;;;;;6.85;3.75;;;;;;;48.22;12.64;100457.09;5010607;28;20049;-76
2023/06/02 10:58:11;;;;;;;6.13;4.22;;;;;;;41.08;17.38;100438.81;5013774;28;20036;-75
2023/06/02 11:01:05;;;;;;;8.93;3.80;;;;;;;37.89;21.34;100430.94;5010884;28;20910;-75
2023/06/02 11:04:17;;;;;;;5.82;3.67;;;;;;;37.15;22.64;100429.00;5020092;28;20041;-74
2023/06/02 11:07:25;;;;;;;7.65;3.78;;;;;;;37.21;23.10;100426.97;5010855;28;20045;-74
2023/06/02 11:10:44;;;;;;;12.63;4.85;;;;;;;35.96;24.82;100421.97;5015145;28;20424;-75
2023/06/02 11:13:59;;;;;;;48.50;14.10;;;;;;;34.89;25.53;100414.56;5011343;28;20052;-75
2023/06/02 11:17:27;;;;;;;12.60;5.97;;;;;;;31.25;30.57;100420.56;5012542;28;20037;-75
2023/06/02 11:20:33;;;;;;;9.50;4.80;;;;;;;30.63;31.01;100411.41;5013552;28;20709;-74
2023/06/02 11:23:28;;;;;;;13.15;5.53;;;;;;;31.20;32.28;100415.56;5017189;28;20519;-74
2023/06/02 11:26:24;;;;;;;12.90;4.28;;;;;;;30.22;33.61;100403.34;5010750;28;20432;-75
2023/06/02 11:29:22;;;;;;;12.75;4.88;;;;;;;29.99;34.06;100401.75;5016951;28;20520;-75
2023/06/02 11:32:18;;;;;;;9.75;4.50;;;;;;;29.70;34.26;100397.16;5010385;28;20045;-74
2023/06/02 11:35:13;;;;;;;10.63;4.18;;;;;;;29.62;34.82;100392.22;5015863;28;20051;-74
2023/06/02 11:38:08;;;;;;;8.18;3.78;;;;;;;29.37;35.26;100386.69;5010907;28;20041;-74
2023/06/02 11:41:09;;;;;;;7.57;4.30;;;;;;;28.63;36.43;100387.03;5013175;28;20045;-74
2023/06/02 11:44:10;;;;;;;14.40;4.70;;;;;;;27.89;39.05;100375.97;5016525;28;20053;-74
2023/06/02 11:47:05;;;;;;;8.55;4.05;;;;;;;27.72;39.39;100380.84;5015932;28;20061;-74
2023/06/02 11:49:59;;;;;;;12.50;4.07;;;;;;;28.22;38.23;100382.28;4997295;28;20053;-74
2023/06/02 11:52:52;;;;;;;7.32;4.95;;;;;;;28.13;40.12;100380.13;4995909;28;20049;-74
2023/06/02 11:55:46;;;;;;;11.18;4.97;;;;;;;27.96;38.53;100381.38;5001973;28;20048;-74
2023/06/02 11:58:48;;;;;;;;;;;;;;;27.42;40.33;100384.81;5014565;28;20409;-74
2023/06/02 12:01:42;;;;;;;8.57;4.07;;;;;;;27.15;41.86;100387.88;5012304;28;19921;-74
2023/06/02 12:04:43;;;;;;;;;;;;;;;27.27;40.54;100397.56;5016014;28;20040;-74
2023/06/02 12:07:32;;;;;;;6.93;5.20;;;;;;;27.38;40.44;100383.34;5011441;28;19913;-74
2023/06/02 12:10:35;;;;;;;10.25;4.82;;;;;;;27.76;39.66;100383.53;5016818;28;20048;-79
2023/06/02 12:13:34;;;;;;;7.32;4.15;;;;;;;28.09;38.99;100382.19;5016225;28;20044;-78
2023/06/02 12:16:28;;;;;;;11.13;4.55;;;;;;;28.31;38.39;100383.19;5019065;28;20057;-78
2023/06/02 12:19:24;;;;;;;10.77;4.93;;;;;;;28.34;39.62;100382.28;5024074;28;20049;-79
2023/06/02 12:22:17;;;;;;;10.35;5.38;;;;;;;28.46;40.03;100381.53;5020361;28;20037;-79
2023/06/02 12:25:18;;;;;;;7.13;4.90;;;;;;;28.47;40.72;100383.13;5020392;28;20117;-79
2023/06/02 12:28:13;;;;;;;8.00;5.18;;;;;;;28.49;40.13;100375.06;5014432;28;20057;-78
2023/06/02 12:31:05;;;;;;;7.82;4.40;;;;;;;28.42;39.35;100372.47;5012289;28;20409;-77
2023/06/02 12:33:59;;;;;;;10.23;4.63;;;;;;;28.34;39.02;100365.50;5017044;28;20041;-78
2023/06/02 12:36:52;;;;;;;10.55;4.57;;;;;;;28.31;39.44;100366.41;5013628;28;20144;-78
2023/06/02 12:39:46;;;;;;;5.70;3.80;;;;;;;28.33;38.66;100365.97;5017478;28;20048;-77
2023/06/02 12:42:36;;;;;;;;;;;;;;;28.33;38.91;100363.19;5017215;28;20049;-78
2023/06/02 12:45:30;;;;;;;11.40;3.75;;;;;;;28.15;39.67;100360.09;5015766;28;19914;-78
2023/06/02 12:48:25;;;;;;;8.95;3.83;;;;;;;28.05;40.44;100365.53;5018828;28;20540;-79
2023/06/02 12:51:20;;;;;;;6.75;3.55;;;;;;;27.97;42.11;100355.78;5011799;28;20036;-78
2023/06/02 12:54:14;;;;;;;8.70;4.22;;;;;;;27.95;41.72;100352.66;5014120;28;20041;-78
2023/06/02 12:57:09;;;;;;;4.88;3.45;;;;;;;27.90;40.87;100353.19;5007765;28;20037;-78
2023/06/02 13:00:01;;;;;;;6.25;3.70;;;;;;;27.84;40.97;100346.56;5008894;28;20057;-78
2023/06/02 13:02:57;;;;;;;9.32;3.58;;;;;;;27.81;40.52;100341.88;5015884;28;20534;-78
2023/06/02 13:06:04;;;;;;;7.13;3.78;;;;;;;27.77;40.55;100338.41;5009066;28;20049;-77
2023/06/02 13:08:55;;;;;;;13.03;4.50;;;;;;;27.73;41.15;100329.34;5012752;28;20103;-78
2023/06/02 13:11:48;;;;;;;;;;;;;;;27.64;40.91;100329.16;5011780;28;20045;-77
2023/06/02 13:14:42;;;;;;;4.93;3.47;;;;;;;27.52;41.11;100321.53;5009802;28;19921;-78
2023/06/02 13:17:34;;;;;;;;;;;;;;;27.56;41.48;100314.63;5013692;28;20044;-77
2023/06/02 13:20:29;;;;;;;16.67;4.32;;;;;;;27.51;41.08;100315.16;5015502;28;19913;-78
2023/06/02 13:23:23;;;;;;;10.07;3.80;;;;;;;27.53;41.33;100300.75;5018395;28;20420;-79
2023/06/02 13:26:15;;;;;;;5.85;3.63;;;;;;;27.41;40.72;100304.25;5018238;28;20045;-78
2023/06/02 13:29:10;;;;;;;8.95;3.72;;;;;;;27.39;40.37;100304.69;5015115;28;20117;-78
2023/06/02 13:32:04;;;;;;;10.27;3.58;;;;;;;27.45;41.04;100307.72;5021941;28;20057;-79
2023/06/02 13:35:02;;;;;;;5.32;3.75;;;;;;;27.47;41.32;100302.50;5014592;28;20049;-78
2023/06/02 13:37:56;;;;;;;4.68;2.90;;;;;;;27.53;41.40;100311.94;5019785;28;20041;-78
2023/06/02 13:40:50;;;;;;;5.00;3.35;;;;;;;27.49;41.52;100308.41;5016316;28;20040;-78
2023/06/02 13:43:45;;;;;;;21.13;3.70;;;;;;;27.45;40.67;100310.50;5016788;28;20049;-78
2023/06/02 13:46:37;;;;;;;;;;;;;;;27.40;40.88;100305.47;5017876;28;20064;-78
2023/06/02 13:49:32;;;;;;;7.00;3.20;;;;;;;27.36;40.62;100305.56;5018592;28;19913;-78
2023/06/02 13:52:21;;;;;;;;;;;;;;;27.41;41.18;100309.84;5021525;28;20037;-77
2023/06/02 13:55:13;;;;;;;7.22;3.40;;;;;;;27.38;40.82;100303.09;5014659;28;19917;-78
2023/06/02 13:58:08;;;;;;;4.97;3.60;;;;;;;27.38;40.85;100305.13;5014141;28;20428;-78
2023/06/02 14:01:00;;;;;;;;;;;;;;;27.38;40.87;100302.34;5019968;28;20053;-78
2023/06/02 14:03:52;;;;;;;8.77;3.63;;;;;;;27.33;40.73;100305.66;5017702;28;19939;-78
2023/06/02 14:06:46;;;;;;;8.10;4.28;;;;;;;27.35;41.18;100306.00;5009438;28;20049;-78
2023/06/02 14:09:38;;;;;;;5.85;3.35;;;;;;;27.34;41.10;100307.22;5021684;28;20057;-78
2023/06/02 14:12:30;;;;;;;;;;;;;;;27.38;40.75;100310.72;5019823;28;20069;-79
2023/06/02 14:15:25;;;;;;;7.75;3.58;;;;;;;27.36;40.95;100308.34;5017304;28;19917;-78
2023/06/02 14:18:19;;;;;;;29.88;5.18;;;;;;;27.33;40.60;100302.88;5016006;28;20041;-79
2023/06/02 14:21:14;;;;;;;5.00;3.20;;;;;;;27.32;39.66;100301.31;5024064;28;20405;-78
2023/06/02 14:24:04;;;;;;;;;;;;;;;27.34;40.01;100301.63;5018583;28;20048;-79
2023/06/02 14:26:56;;;;;;;;;;;;;;;27.36;40.83;100307.56;5023511;28;19913;-79
2023/06/02 14:29:45;;;;;;;;;;;;;;;27.34;40.84;100310.78;5022759;28;19913;-78